createdAt,value
2023-05-04T00:00:47.564Z,15.55
2023-05-04T00:03:34.867Z,13.80
2023-05-04T00:06:22.310Z,13.98
2023-05-04T00:09:11.353Z,16.30
2023-05-04T00:11:58.546Z,17.73
2023-05-04T00:14:45.781Z,12.13
2023-05-04T00:17:33.212Z,11.35
2023-05-04T00:20:20.559Z,12.18
2023-05-04T00:23:08.338Z,13.68
2023-05-04T00:25:55.853Z,15.13
2023-05-04T00:28:43.052Z,14.35
2023-05-04T00:31:30.275Z,12.13
2023-05-04T00:34:17.502Z,13.68
2023-05-04T00:37:05.000Z,12.48
2023-05-04T00:39:52.230Z,18.60
2023-05-04T00:42:39.443Z,14.63
2023-05-04T00:45:26.820Z,15.80
2023-05-04T00:48:14.325Z,13.50
2023-05-04T00:51:02.211Z,13.18
2023-05-04T00:53:50.019Z,15.90
2023-05-04T00:56:43.497Z,16.35
2023-05-04T00:59:30.730Z,18.98
2023-05-04T01:02:18.080Z,14.98
2023-05-04T01:05:06.651Z,14.38
2023-05-04T01:08:05.178Z,14.98
2023-05-04T01:11:09.346Z,14.68
2023-05-04T01:13:57.101Z,13.77
2023-05-04T01:16:44.421Z,14.30
2023-05-04T01:19:32.210Z,11.32
2023-05-04T01:22:19.811Z,15.73
2023-05-04T01:25:08.260Z,11.98
2023-05-04T01:28:04.428Z,15.98
2023-05-04T01:31:00.817Z,14.68
2023-05-04T01:33:51.020Z,17.58
2023-05-04T01:36:40.091Z,13.82
2023-05-04T01:39:27.302Z,16.15
2023-05-04T01:42:14.583Z,13.10
2023-05-04T01:45:02.147Z,15.00
2023-05-04T01:47:50.227Z,16.13
2023-05-04T01:50:37.470Z,17.70
2023-05-04T01:53:24.660Z,19.40
2023-05-04T01:56:11.956Z,15.00
2023-05-04T01:58:59.276Z,15.82
2023-05-04T02:01:46.586Z,14.70
2023-05-04T02:04:34.293Z,16.52
2023-05-04T02:07:22.072Z,16.02
2023-05-04T02:10:09.822Z,19.15
2023-05-04T02:12:58.337Z,17.90
2023-05-04T02:15:45.694Z,18.33
2023-05-04T02:18:32.956Z,17.42
2023-05-04T02:21:20.176Z,18.83
2023-05-04T02:24:07.724Z,18.27
2023-05-04T02:26:55.020Z,22.67
2023-05-04T02:29:42.326Z,26.55
2023-05-04T02:32:29.589Z,15.32
2023-05-04T02:35:16.865Z,19.27
2023-05-04T02:38:04.067Z,20.27
2023-05-04T02:40:51.306Z,17.90
2023-05-04T02:43:38.502Z,17.73
2023-05-04T02:46:27.038Z,17.48
2023-05-04T02:49:14.395Z,16.63
2023-05-04T02:52:01.694Z,18.77
2023-05-04T02:54:50.129Z,19.75
2023-05-04T02:57:39.048Z,18.75
2023-05-04T03:00:26.493Z,19.90
2023-05-04T03:03:13.805Z,21.63
2023-05-04T03:06:01.357Z,17.73
2023-05-04T03:08:48.685Z,25.92
2023-05-04T03:11:36.054Z,22.80
2023-05-04T03:14:23.305Z,22.60
2023-05-04T03:17:10.494Z,26.08
2023-05-04T03:19:57.717Z,20.63
2023-05-04T03:22:44.950Z,27.50
2023-05-04T03:25:32.408Z,23.17
2023-05-04T03:28:19.608Z,22.73
2023-05-04T03:31:06.885Z,30.67
2023-05-04T03:33:54.133Z,22.10
2023-05-04T03:36:41.500Z,21.15
2023-05-04T03:39:28.738Z,21.65
2023-05-04T03:42:16.271Z,24.83
2023-05-04T03:45:04.318Z,24.10
2023-05-04T03:47:51.800Z,25.10
2023-05-04T03:50:39.066Z,24.65
2023-05-04T03:53:26.444Z,21.60
2023-05-04T03:56:13.634Z,24.60
2023-05-04T03:59:01.666Z,24.77
2023-05-04T04:01:48.882Z,27.02
2023-05-04T04:04:36.176Z,22.23
2023-05-04T04:07:23.734Z,28.13
2023-05-04T04:10:11.388Z,34.45
2023-05-04T04:12:58.647Z,24.15
2023-05-04T04:15:46.901Z,27.27
2023-05-04T04:18:34.189Z,23.15
2023-05-04T04:21:21.549Z,26.38
2023-05-04T04:24:08.847Z,26.15
2023-05-04T04:26:56.317Z,28.75
2023-05-04T04:29:44.086Z,25.02
2023-05-04T04:32:32.440Z,23.20
2023-05-04T04:35:19.742Z,27.75
2023-05-04T04:38:07.337Z,29.48
2023-05-04T04:40:54.539Z,29.17
2023-05-04T04:43:41.773Z,27.63
2023-05-04T04:46:29.028Z,35.38
2023-05-04T04:49:18.095Z,24.55
2023-05-04T04:52:06.153Z,37.85
2023-05-04T04:54:53.410Z,25.25
2023-05-04T04:57:40.661Z,24.10
2023-05-04T05:00:27.915Z,26.15
2023-05-04T05:03:15.251Z,28.98
2023-05-04T05:06:02.879Z,33.67
2023-05-04T05:08:50.029Z,31.08
2023-05-04T05:11:37.237Z,33.00
2023-05-04T05:14:24.484Z,30.20
2023-05-04T05:17:12.496Z,29.83
2023-05-04T05:19:59.719Z,28.65
2023-05-04T05:22:47.008Z,29.15
2023-05-04T05:25:39.179Z,30.88
2023-05-04T05:28:26.572Z,25.40
2023-05-04T05:31:14.088Z,28.55
2023-05-04T05:34:01.709Z,21.23
2023-05-04T05:36:49.318Z,29.70
2023-05-04T05:39:37.415Z,33.65
2023-05-04T05:42:24.755Z,30.95
2023-05-04T05:45:12.003Z,27.80
2023-05-04T05:47:59.201Z,32.92
2023-05-04T05:50:46.760Z,28.25
2023-05-04T05:53:33.956Z,31.05
2023-05-04T05:56:22.586Z,30.13
2023-05-04T05:59:09.796Z,29.88
2023-05-04T06:01:57.008Z,27.95
2023-05-04T06:04:47.455Z,32.72
2023-05-04T06:07:34.765Z,33.63
2023-05-04T06:10:22.170Z,24.00
2023-05-04T06:13:17.757Z,25.30
2023-05-04T06:16:05.320Z,28.10
2023-05-04T06:18:52.574Z,28.58
2023-05-04T06:21:39.794Z,32.05
2023-05-04T06:24:27.372Z,27.92
2023-05-04T06:27:14.633Z,36.25
2023-05-04T06:30:02.041Z,27.35
2023-05-04T06:32:49.295Z,26.73
2023-05-04T06:35:36.645Z,28.58
2023-05-04T06:38:23.877Z,31.55
2023-05-04T06:41:11.331Z,24.40
2023-05-04T06:44:00.224Z,31.17
2023-05-04T06:46:47.489Z,24.80
2023-05-04T06:49:35.611Z,24.48
2023-05-04T06:52:22.892Z,28.52
2023-05-04T06:55:10.192Z,28.30
2023-05-04T06:57:57.824Z,26.77
2023-05-04T07:00:45.052Z,27.60
2023-05-04T07:03:32.796Z,21.13
2023-05-04T07:06:21.327Z,28.95
2023-05-04T07:09:08.695Z,26.17
2023-05-04T07:11:55.931Z,22.80
2023-05-04T07:14:43.182Z,23.92
2023-05-04T07:17:32.550Z,28.30
2023-05-04T07:20:24.294Z,30.88
2023-05-04T07:23:12.602Z,30.25
2023-05-04T07:26:00.175Z,25.85
2023-05-04T07:28:47.557Z,24.70
2023-05-04T07:31:35.278Z,30.27
2023-05-04T07:34:30.186Z,28.08
2023-05-04T07:37:25.372Z,25.13
2023-05-04T07:40:14.933Z,30.95
2023-05-04T07:43:02.142Z,27.40
2023-05-04T07:45:49.614Z,32.75
2023-05-04T07:48:36.923Z,29.17
2023-05-04T07:51:24.205Z,26.52
2023-05-04T07:54:11.506Z,29.42
2023-05-04T07:56:58.694Z,28.17
2023-05-04T07:59:45.931Z,28.73
2023-05-04T08:02:33.292Z,25.90
2023-05-04T08:05:20.639Z,29.88
2023-05-04T08:08:09.430Z,32.30
2023-05-04T08:11:07.985Z,30.77
2023-05-04T08:14:03.988Z,28.58
2023-05-04T08:16:51.216Z,30.95
2023-05-04T08:19:38.405Z,28.30
2023-05-04T08:22:25.887Z,30.17
2023-05-04T08:25:13.342Z,27.80
2023-05-04T08:28:00.725Z,26.30
2023-05-04T08:30:47.939Z,36.65
2023-05-04T08:33:35.172Z,27.40
2023-05-04T08:36:22.414Z,25.52
2023-05-04T08:39:10.127Z,29.27
2023-05-04T08:41:57.504Z,31.70
2023-05-04T08:44:44.768Z,31.73
2023-05-04T08:47:32.075Z,25.90
2023-05-04T08:50:19.555Z,33.60
2023-05-04T08:53:12.079Z,28.98
2023-05-04T08:56:04.687Z,35.88
2023-05-04T08:58:52.942Z,32.97
2023-05-04T09:01:42.237Z,27.05
2023-05-04T09:04:31.400Z,26.85
2023-05-04T09:07:20.696Z,24.13
2023-05-04T09:10:09.016Z,35.75
2023-05-04T09:12:56.437Z,30.17
2023-05-04T09:15:58.211Z,30.35
2023-05-04T09:18:46.144Z,29.15
2023-05-04T09:21:33.514Z,35.13
2023-05-04T09:24:30.880Z,27.25
2023-05-04T09:27:18.467Z,35.35
2023-05-04T09:30:07.163Z,34.53
2023-05-04T09:32:54.487Z,27.70
2023-05-04T09:35:44.683Z,26.77
2023-05-04T09:38:32.806Z,33.95
2023-05-04T09:41:32.024Z,35.38
2023-05-04T09:44:24.506Z,28.92
2023-05-04T09:47:11.930Z,26.85
2023-05-04T09:49:59.669Z,26.08
2023-05-04T09:52:47.764Z,30.80
2023-05-04T09:55:35.070Z,29.13
2023-05-04T09:58:24.021Z,29.83
2023-05-04T10:14:35.853Z,28.92
2023-05-04T10:17:41.981Z,32.55
2023-05-04T10:21:01.269Z,24.40
2023-05-04T10:24:15.999Z,26.00
2023-05-04T10:27:12.265Z,24.13
2023-05-04T10:30:01.681Z,20.55
2023-05-04T10:32:59.106Z,27.67
2023-05-04T10:35:55.949Z,27.38
2023-05-04T10:38:43.258Z,25.33
2023-05-04T10:41:30.557Z,23.77
2023-05-04T10:44:17.820Z,25.98
2023-05-04T10:47:08.095Z,28.10
2023-05-04T10:50:11.372Z,26.05
2023-05-04T10:53:00.031Z,25.13
2023-05-04T10:55:49.004Z,25.38
2023-05-04T10:58:36.369Z,27.02
2023-05-04T11:01:24.250Z,24.83
2023-05-04T11:04:22.683Z,23.33
2023-05-04T11:07:10.033Z,25.98
2023-05-04T11:09:57.508Z,21.13
2023-05-04T11:12:44.803Z,24.33
2023-05-04T11:15:33.109Z,26.33
2023-05-04T11:18:34.579Z,23.50
2023-05-04T11:21:26.371Z,23.60
2023-05-04T11:24:13.914Z,29.48
2023-05-04T11:27:01.434Z,21.10
2023-05-04T11:30:04.706Z,27.52
2023-05-04T11:32:51.989Z,26.52
2023-05-04T11:35:40.123Z,26.15
2023-05-04T11:38:27.682Z,20.23
2023-05-04T11:41:15.196Z,23.88
2023-05-04T11:44:03.682Z,22.58
2023-05-04T11:46:51.983Z,24.98
2023-05-04T11:49:39.574Z,19.98
2023-05-04T11:52:27.769Z,22.95
2023-05-04T11:55:32.258Z,26.52
2023-05-04T11:58:26.116Z,26.52
2023-05-04T12:01:13.813Z,24.00
2023-05-04T12:04:01.389Z,18.85
2023-05-04T12:06:49.790Z,21.77
2023-05-04T12:09:48.286Z,23.65
2023-05-04T12:12:36.705Z,28.13
2023-05-04T12:15:37.532Z,23.10
2023-05-04T12:18:29.856Z,24.55
2023-05-04T12:21:23.937Z,20.50
2023-05-04T12:24:11.173Z,26.60
2023-05-04T12:26:58.415Z,20.67
2023-05-04T12:29:45.643Z,20.13
2023-05-04T12:32:32.942Z,18.80
2023-05-04T12:35:20.318Z,22.50
2023-05-04T12:38:07.566Z,22.90
2023-05-04T12:40:56.321Z,22.92
2023-05-04T12:43:43.646Z,28.35
2023-05-04T12:46:31.149Z,26.23
2023-05-04T12:49:18.548Z,23.77
2023-05-04T12:52:06.194Z,25.88
2023-05-04T12:54:53.464Z,23.13
2023-05-04T12:57:45.142Z,22.88
2023-05-04T13:00:36.541Z,25.20
2023-05-04T13:03:24.313Z,26.30
2023-05-04T13:06:11.759Z,31.30
2023-05-04T13:09:01.863Z,22.15
2023-05-04T13:11:49.983Z,23.15
2023-05-04T13:14:39.953Z,21.77
2023-05-04T13:17:29.892Z,26.20
2023-05-04T13:20:17.299Z,21.25
2023-05-04T13:23:04.582Z,20.05
2023-05-04T13:25:52.481Z,22.20
2023-05-04T13:28:39.851Z,24.98
2023-05-04T13:31:27.168Z,24.73
2023-05-04T13:34:14.452Z,19.70
2023-05-04T13:37:01.669Z,27.13
2023-05-04T13:39:49.079Z,25.55
2023-05-04T13:42:37.404Z,24.35
2023-05-04T13:45:25.219Z,23.30
2023-05-04T13:48:12.803Z,25.27
2023-05-04T13:51:00.022Z,21.77
2023-05-04T13:53:47.214Z,28.35
2023-05-04T13:56:34.476Z,20.23
2023-05-04T13:59:21.684Z,25.00
2023-05-04T14:02:08.940Z,23.27
2023-05-04T14:04:56.225Z,28.88
2023-05-04T14:07:43.489Z,23.33
2023-05-04T14:10:30.703Z,25.17
2023-05-04T14:13:18.695Z,24.38
2023-05-04T14:16:06.279Z,25.30
2023-05-04T14:18:53.542Z,25.60
2023-05-04T14:21:40.757Z,25.50
2023-05-04T14:24:28.045Z,24.20
2023-05-04T14:27:15.301Z,25.85
2023-05-04T14:30:06.359Z,22.88
2023-05-04T14:32:55.670Z,32.80
2023-05-04T14:35:45.105Z,20.35
2023-05-04T14:38:35.543Z,28.42
2023-05-04T14:41:22.789Z,27.83
2023-05-04T14:44:10.174Z,21.10
2023-05-04T14:46:57.554Z,24.25
2023-05-04T14:49:47.848Z,26.45
2023-05-04T14:52:35.123Z,22.45
2023-05-04T14:55:22.513Z,23.15
2023-05-04T14:58:10.252Z,28.95
2023-05-04T15:00:57.714Z,23.02
2023-05-04T15:03:45.749Z,23.98
2023-05-04T15:06:34.199Z,25.85
2023-05-04T15:09:21.475Z,24.48
2023-05-04T15:12:08.917Z,21.92
2023-05-04T15:14:56.128Z,32.75
2023-05-04T15:17:43.484Z,28.38
2023-05-04T15:20:30.740Z,28.77
2023-05-04T15:23:18.032Z,24.88
2023-05-04T15:26:05.302Z,26.60
2023-05-04T15:28:53.985Z,25.67
2023-05-04T15:31:41.798Z,30.55
2023-05-04T15:34:29.080Z,25.75
2023-05-04T15:37:16.309Z,29.17
2023-05-04T15:40:05.049Z,27.00
2023-05-04T15:42:53.196Z,30.15
2023-05-04T15:45:40.398Z,24.52
2023-05-04T15:48:30.724Z,23.85
2023-05-04T15:51:19.054Z,23.80
2023-05-04T15:54:06.365Z,28.17
2023-05-04T15:56:53.614Z,26.00
2023-05-04T15:59:41.035Z,25.42
2023-05-04T16:02:28.576Z,29.23
2023-05-04T16:05:15.869Z,25.33
2023-05-04T16:08:03.321Z,26.33
2023-05-04T16:10:52.247Z,27.42
2023-05-04T16:13:39.494Z,27.42
2023-05-04T16:16:26.859Z,30.60
2023-05-04T16:19:14.101Z,26.35
2023-05-04T16:22:01.543Z,27.02
2023-05-04T16:24:48.816Z,28.60
2023-05-04T16:27:36.052Z,27.23
2023-05-04T16:30:26.391Z,27.80
2023-05-04T16:33:13.766Z,29.45
2023-05-04T16:36:01.100Z,28.33
2023-05-04T16:38:48.633Z,35.65
2023-05-04T16:41:36.736Z,30.05
2023-05-04T16:44:24.557Z,23.40
2023-05-04T16:47:11.861Z,29.35
2023-05-04T16:49:59.205Z,28.95
2023-05-04T16:52:46.965Z,30.70
2023-05-04T16:55:34.245Z,27.73
2023-05-04T16:58:21.491Z,32.60
2023-05-04T17:01:10.958Z,28.42
2023-05-04T17:03:58.918Z,30.73
2023-05-04T17:06:46.302Z,26.40
2023-05-04T17:09:33.541Z,29.88
2023-05-04T17:12:22.137Z,28.02
2023-05-04T17:15:11.139Z,29.90
2023-05-04T17:17:58.555Z,29.58
2023-05-04T17:20:45.794Z,28.33
2023-05-04T17:23:33.043Z,31.40
2023-05-04T17:26:20.373Z,32.08
2023-05-04T17:29:07.912Z,27.00
2023-05-04T17:31:55.171Z,28.17
2023-05-04T17:34:42.397Z,31.77
2023-05-04T17:37:29.624Z,28.05
2023-05-04T17:40:16.967Z,29.35
2023-05-04T17:43:04.197Z,31.17
2023-05-04T17:45:53.103Z,31.63
2023-05-04T17:48:42.481Z,25.23
2023-05-04T17:51:29.727Z,26.85
2023-05-04T17:54:17.375Z,28.38
2023-05-04T17:57:04.785Z,27.30
2023-05-04T17:59:52.051Z,35.05
2023-05-04T18:02:39.322Z,27.23
2023-05-04T18:05:26.608Z,35.40
2023-05-04T18:08:14.347Z,28.13
2023-05-04T18:11:01.607Z,31.20
2023-05-04T18:13:48.944Z,35.03
2023-05-04T18:16:37.916Z,26.50
2023-05-04T18:19:26.904Z,33.17
2023-05-04T18:22:14.193Z,30.45
2023-05-04T18:25:02.254Z,31.05
2023-05-04T18:27:49.468Z,36.05
2023-05-04T18:30:36.772Z,26.95
2023-05-04T18:33:24.038Z,29.88
2023-05-04T18:36:11.379Z,30.48
2023-05-04T18:39:01.018Z,30.98
2023-05-04T18:41:48.242Z,30.73
2023-05-04T18:44:35.557Z,26.55
2023-05-04T18:47:23.019Z,32.15
2023-05-04T18:50:11.016Z,32.45
2023-05-04T18:52:58.329Z,29.27
2023-05-04T18:55:45.565Z,29.27
2023-05-04T18:58:33.297Z,33.60
2023-05-04T19:01:22.127Z,33.55
2023-05-04T19:04:09.495Z,34.90
2023-05-04T19:06:58.083Z,36.05
2023-05-04T19:09:48.016Z,38.75
2023-05-04T19:12:35.282Z,31.13
2023-05-04T19:15:23.398Z,25.92
2023-05-04T19:18:10.909Z,40.65
2023-05-04T19:20:58.495Z,31.60
2023-05-04T19:23:46.280Z,33.13
2023-05-04T19:26:33.585Z,37.22
2023-05-04T19:29:20.809Z,37.08
2023-05-04T19:32:19.821Z,42.42
2023-05-04T19:35:11.785Z,29.55
2023-05-04T19:37:59.627Z,36.63
2023-05-04T19:40:47.563Z,33.13
2023-05-04T19:43:35.623Z,34.83
2023-05-04T19:46:23.426Z,40.47
2023-05-04T19:49:12.316Z,38.88
2023-05-04T19:51:59.568Z,44.10
2023-05-04T19:54:48.734Z,37.67
2023-05-04T19:57:36.584Z,42.45
2023-05-04T20:00:23.900Z,39.67
2023-05-04T20:03:11.284Z,33.45
2023-05-04T20:05:58.796Z,33.45
2023-05-04T20:08:46.105Z,29.35
2023-05-04T20:11:34.019Z,39.75
2023-05-04T20:14:21.290Z,37.92
2023-05-04T20:17:08.662Z,34.85
2023-05-04T20:19:56.131Z,38.60
2023-05-04T20:22:43.459Z,47.92
2023-05-04T20:25:30.729Z,39.63
2023-05-04T20:28:18.146Z,38.08
2023-05-04T20:31:06.043Z,35.97
2023-05-04T20:33:53.314Z,42.08
2023-05-04T20:36:40.552Z,31.60
2023-05-04T20:39:28.347Z,31.55
2023-05-04T20:42:15.793Z,34.78
2023-05-04T20:45:03.154Z,22.25
2023-05-04T20:47:51.064Z,25.20
2023-05-04T20:50:40.377Z,24.02
2023-05-04T20:53:30.745Z,22.77
2023-05-04T20:56:18.061Z,22.85
2023-05-04T20:59:05.759Z,15.95
2023-05-04T21:01:53.121Z,11.35
2023-05-04T21:04:42.020Z,12.10
2023-05-04T21:07:29.284Z,8.02
2023-05-04T21:10:16.563Z,5.57
2023-05-04T21:13:03.879Z,6.88
2023-05-04T21:15:51.841Z,5.30
2023-05-04T21:18:40.138Z,6.18
2023-05-04T21:21:28.218Z,3.85
2023-05-04T21:24:16.703Z,3.97
2023-05-04T21:27:04.690Z,4.82
2023-05-04T21:29:52.071Z,3.25
2023-05-04T21:32:39.371Z,4.75
2023-05-04T21:35:31.142Z,2.47
2023-05-04T21:38:21.066Z,4.90
2023-05-04T21:41:16.497Z,7.75
2023-05-04T21:44:03.969Z,4.40
2023-05-04T21:46:52.153Z,8.05
2023-05-04T21:49:39.397Z,6.30
2023-05-04T21:52:26.923Z,4.63
2023-05-04T21:55:15.515Z,4.57
2023-05-04T21:58:02.816Z,5.95
2023-05-04T22:00:50.082Z,5.88
2023-05-04T22:03:37.444Z,6.28
2023-05-04T22:06:24.830Z,8.68
2023-05-04T22:09:13.638Z,5.78
2023-05-04T22:12:01.209Z,7.75
2023-05-04T22:14:48.454Z,7.70
2023-05-04T22:17:35.717Z,7.68
2023-05-04T22:20:23.693Z,8.02
2023-05-04T22:23:11.356Z,9.10
2023-05-04T22:25:58.758Z,7.78
2023-05-04T22:28:45.976Z,8.57
2023-05-04T22:31:33.218Z,7.28
2023-05-04T22:34:20.682Z,9.27
2023-05-04T22:37:07.957Z,6.18
2023-05-04T22:39:55.165Z,7.60
2023-05-04T22:42:45.128Z,6.53
2023-05-04T22:45:36.574Z,7.57
2023-05-04T22:48:23.963Z,9.52
2023-05-04T22:51:11.193Z,6.13
2023-05-04T22:53:58.555Z,5.40
2023-05-04T22:56:45.816Z,5.28
2023-05-04T22:59:33.144Z,5.70
2023-05-04T23:02:20.435Z,4.25
2023-05-04T23:05:09.261Z,5.88
2023-05-04T23:07:56.531Z,5.60
2023-05-04T23:10:47.202Z,7.18
2023-05-04T23:13:34.524Z,8.55
2023-05-04T23:16:22.325Z,6.18
2023-05-04T23:19:09.719Z,8.60
2023-05-04T23:21:59.941Z,7.07
2023-05-04T23:24:47.169Z,10.02
2023-05-04T23:27:34.500Z,7.40
2023-05-04T23:30:21.697Z,6.85
2023-05-04T23:33:08.992Z,9.32
2023-05-04T23:35:56.539Z,5.45
2023-05-04T23:38:43.773Z,7.00
2023-05-04T23:41:31.103Z,5.03
2023-05-04T23:44:18.399Z,6.15
2023-05-04T23:47:05.806Z,6.30
2023-05-04T23:49:53.040Z,7.32
2023-05-04T23:52:40.270Z,7.13
2023-05-04T23:55:27.687Z,4.03
2023-05-04T23:58:14.909Z,5.90
